sensor_id;sensor_type;location;lat;lon;timestamp;P1;durP1;ratioP1;P2;durP2;ratioP2
41456;SDS011;27197;51.752;5.220;2022-12-07T00:00:23;3.67;;;1.67;;
41456;SDS011;27197;51.752;5.220;2022-12-07T00:02:52;3.33;;;1.90;;
41456;SDS011;27197;51.752;5.220;2022-12-07T00:05:24;3.37;;;1.95;;
41456;SDS011;27197;51.752;5.220;2022-12-07T00:07:54;3.45;;;1.85;;
41456;SDS011;27197;51.752;5.220;2022-12-07T00:10:26;2.77;;;1.87;;
41456;SDS011;27197;51.752;5.220;2022-12-07T00:12:58;3.37;;;1.70;;
41456;SDS011;27197;51.752;5.220;2022-12-07T00:15:28;3.87;;;2.15;;
41456;SDS011;27197;51.752;5.220;2022-12-07T00:18:00;2.90;;;1.62;;
41456;SDS011;27197;51.752;5.220;2022-12-07T00:20:30;3.95;;;2.20;;
41456;SDS011;27197;51.752;5.220;2022-12-07T00:23:02;3.00;;;2.00;;
41456;SDS011;27197;51.752;5.220;2022-12-07T00:25:31;2.95;;;1.57;;
41456;SDS011;27197;51.752;5.220;2022-12-07T00:28:02;3.42;;;1.90;;
41456;SDS011;27197;51.752;5.220;2022-12-07T00:30:30;3.50;;;1.60;;
41456;SDS011;27197;51.752;5.220;2022-12-07T00:35:28;3.35;;;2.02;;
41456;SDS011;27197;51.752;5.220;2022-12-07T00:38:00;4.37;;;2.00;;
41456;SDS011;27197;51.752;5.220;2022-12-07T00:40:30;2.65;;;1.62;;
41456;SDS011;27197;51.752;5.220;2022-12-07T00:43:02;2.35;;;1.62;;
41456;SDS011;27197;51.752;5.220;2022-12-07T00:45:30;2.90;;;1.90;;
41456;SDS011;27197;51.752;5.220;2022-12-07T00:48:03;2.60;;;1.85;;
41456;SDS011;27197;51.752;5.220;2022-12-07T00:50:34;3.58;;;1.90;;
41456;SDS011;27197;51.752;5.220;2022-12-07T00:53:04;3.85;;;2.00;;
41456;SDS011;27197;51.752;5.220;2022-12-07T00:55:36;3.55;;;1.82;;
41456;SDS011;27197;51.752;5.220;2022-12-07T00:58:03;3.00;;;1.90;;
41456;SDS011;27197;51.752;5.220;2022-12-07T01:00:34;3.60;;;1.87;;
41456;SDS011;27197;51.752;5.220;2022-12-07T01:03:03;4.05;;;2.12;;
41456;SDS011;27197;51.752;5.220;2022-12-07T01:08:01;2.77;;;1.60;;
41456;SDS011;27197;51.752;5.220;2022-12-07T01:10:31;3.58;;;2.10;;
41456;SDS011;27197;51.752;5.220;2022-12-07T01:13:06;4.87;;;2.42;;
41456;SDS011;27197;51.752;5.220;2022-12-07T01:15:38;3.30;;;1.85;;
41456;SDS011;27197;51.752;5.220;2022-12-07T01:18:12;3.30;;;2.25;;
41456;SDS011;27197;51.752;5.220;2022-12-07T01:20:41;2.65;;;1.70;;
41456;SDS011;27197;51.752;5.220;2022-12-07T01:23:15;4.22;;;1.95;;
41456;SDS011;27197;51.752;5.220;2022-12-07T01:25:42;3.77;;;1.72;;
41456;SDS011;27197;51.752;5.220;2022-12-07T01:28:13;3.42;;;2.02;;
41456;SDS011;27197;51.752;5.220;2022-12-07T01:30:42;5.05;;;2.33;;
41456;SDS011;27197;51.752;5.220;2022-12-07T01:33:14;3.80;;;1.87;;
41456;SDS011;27197;51.752;5.220;2022-12-07T01:35:43;3.17;;;1.95;;
41456;SDS011;27197;51.752;5.220;2022-12-07T01:38:13;4.05;;;1.90;;
41456;SDS011;27197;51.752;5.220;2022-12-07T01:40:45;4.47;;;2.12;;
41456;SDS011;27197;51.752;5.220;2022-12-07T01:43:18;3.67;;;1.85;;
41456;SDS011;27197;51.752;5.220;2022-12-07T01:45:44;3.65;;;1.90;;
41456;SDS011;27197;51.752;5.220;2022-12-07T01:48:17;3.90;;;1.90;;
41456;SDS011;27197;51.752;5.220;2022-12-07T01:50:47;3.35;;;1.82;;
41456;SDS011;27197;51.752;5.220;2022-12-07T01:53:19;4.17;;;1.82;;
41456;SDS011;27197;51.752;5.220;2022-12-07T01:55:49;3.90;;;1.87;;
41456;SDS011;27197;51.752;5.220;2022-12-07T01:58:22;3.67;;;1.90;;
41456;SDS011;27197;51.752;5.220;2022-12-07T02:00:51;4.33;;;2.02;;
41456;SDS011;27197;51.752;5.220;2022-12-07T02:03:42;3.42;;;1.80;;
41456;SDS011;27197;51.752;5.220;2022-12-07T02:05:56;3.72;;;2.00;;
41456;SDS011;27197;51.752;5.220;2022-12-07T02:08:28;4.10;;;2.87;;
41456;SDS011;27197;51.752;5.220;2022-12-07T02:10:56;4.05;;;1.90;;
41456;SDS011;27197;51.752;5.220;2022-12-07T02:13:28;3.87;;;1.67;;
41456;SDS011;27197;51.752;5.220;2022-12-07T02:16:04;3.92;;;2.10;;
41456;SDS011;27197;51.752;5.220;2022-12-07T02:21:36;3.85;;;2.05;;
41456;SDS011;27197;51.752;5.220;2022-12-07T02:29:39;3.85;;;1.75;;
41456;SDS011;27197;51.752;5.220;2022-12-07T02:35:03;3.10;;;1.77;;
41456;SDS011;27197;51.752;5.220;2022-12-07T02:40:21;3.05;;;1.98;;
41456;SDS011;27197;51.752;5.220;2022-12-07T02:43:00;5.92;;;2.15;;
41456;SDS011;27197;51.752;5.220;2022-12-07T02:45:28;3.00;;;1.67;;
41456;SDS011;27197;51.752;5.220;2022-12-07T02:47:59;4.40;;;2.17;;
41456;SDS011;27197;51.752;5.220;2022-12-07T02:50:32;3.65;;;1.92;;
41456;SDS011;27197;51.752;5.220;2022-12-07T02:53:00;4.53;;;1.90;;
41456;SDS011;27197;51.752;5.220;2022-12-07T02:55:39;5.58;;;2.10;;
41456;SDS011;27197;51.752;5.220;2022-12-07T03:00:57;3.75;;;2.17;;
41456;SDS011;27197;51.752;5.220;2022-12-07T03:03:26;4.17;;;1.77;;
41456;SDS011;27197;51.752;5.220;2022-12-07T03:06:01;3.77;;;2.30;;
41456;SDS011;27197;51.752;5.220;2022-12-07T03:08:33;2.58;;;1.85;;
41456;SDS011;27197;51.752;5.220;2022-12-07T03:11:10;3.58;;;1.77;;
41456;SDS011;27197;51.752;5.220;2022-12-07T03:13:41;4.15;;;1.80;;
41456;SDS011;27197;51.752;5.220;2022-12-07T03:16:17;4.60;;;1.98;;
41456;SDS011;27197;51.752;5.220;2022-12-07T03:18:51;2.90;;;1.60;;
41456;SDS011;27197;51.752;5.220;2022-12-07T03:24:09;2.95;;;1.90;;
41456;SDS011;27197;51.752;5.220;2022-12-07T03:26:41;2.65;;;1.80;;
41456;SDS011;27197;51.752;5.220;2022-12-07T03:29:21;4.03;;;1.75;;
41456;SDS011;27197;51.752;5.220;2022-12-07T03:31:46;2.92;;;1.60;;
41456;SDS011;27197;51.752;5.220;2022-12-07T03:34:28;5.42;;;1.90;;
41456;SDS011;27197;51.752;5.220;2022-12-07T03:36:56;3.05;;;1.85;;
41456;SDS011;27197;51.752;5.220;2022-12-07T03:39:29;3.20;;;1.72;;
41456;SDS011;27197;51.752;5.220;2022-12-07T03:42:03;3.33;;;1.70;;
41456;SDS011;27197;51.752;5.220;2022-12-07T03:44:32;2.87;;;1.27;;
41456;SDS011;27197;51.752;5.220;2022-12-07T03:47:10;2.50;;;1.50;;
41456;SDS011;27197;51.752;5.220;2022-12-07T03:49:56;3.35;;;1.60;;
41456;SDS011;27197;51.752;5.220;2022-12-07T03:52:27;2.67;;;1.55;;
41456;SDS011;27197;51.752;5.220;2022-12-07T03:57:40;2.70;;;1.20;;
41456;SDS011;27197;51.752;5.220;2022-12-07T04:00:09;3.37;;;1.50;;
41456;SDS011;27197;51.752;5.220;2022-12-07T04:02:40;6.65;;;2.08;;
41456;SDS011;27197;51.752;5.220;2022-12-07T04:05:15;2.95;;;1.10;;
41456;SDS011;27197;51.752;5.220;2022-12-07T04:07:45;3.72;;;1.55;;
41456;SDS011;27197;51.752;5.220;2022-12-07T04:10:16;2.67;;;1.40;;
41456;SDS011;27197;51.752;5.220;2022-12-07T04:12:45;2.60;;;1.52;;
41456;SDS011;27197;51.752;5.220;2022-12-07T04:15:16;3.67;;;1.22;;
41456;SDS011;27197;51.752;5.220;2022-12-07T04:17:45;2.15;;;1.10;;
41456;SDS011;27197;51.752;5.220;2022-12-07T04:20:16;2.83;;;1.35;;
41456;SDS011;27197;51.752;5.220;2022-12-07T04:22:45;5.30;;;1.70;;
41456;SDS011;27197;51.752;5.220;2022-12-07T04:25:15;2.70;;;1.02;;
41456;SDS011;27197;51.752;5.220;2022-12-07T04:27:44;2.12;;;1.12;;
41456;SDS011;27197;51.752;5.220;2022-12-07T04:30:17;4.40;;;1.52;;
41456;SDS011;27197;51.752;5.220;2022-12-07T04:32:45;4.22;;;1.25;;
41456;SDS011;27197;51.752;5.220;2022-12-07T04:35:19;3.35;;;1.20;;
41456;SDS011;27197;51.752;5.220;2022-12-07T04:37:49;4.37;;;1.40;;
41456;SDS011;27197;51.752;5.220;2022-12-07T04:40:21;2.95;;;1.27;;
41456;SDS011;27197;51.752;5.220;2022-12-07T04:42:53;2.75;;;1.20;;
41456;SDS011;27197;51.752;5.220;2022-12-07T04:45:26;2.92;;;1.12;;
41456;SDS011;27197;51.752;5.220;2022-12-07T04:47:55;3.40;;;1.57;;
41456;SDS011;27197;51.752;5.220;2022-12-07T04:50:27;2.10;;;1.32;;
41456;SDS011;27197;51.752;5.220;2022-12-07T04:52:57;2.67;;;1.17;;
41456;SDS011;27197;51.752;5.220;2022-12-07T04:55:29;3.02;;;1.17;;
41456;SDS011;27197;51.752;5.220;2022-12-07T04:57:58;2.33;;;1.15;;
41456;SDS011;27197;51.752;5.220;2022-12-07T05:00:30;2.50;;;1.10;;
41456;SDS011;27197;51.752;5.220;2022-12-07T05:03:00;1.85;;;1.15;;
41456;SDS011;27197;51.752;5.220;2022-12-07T05:05:32;2.52;;;1.00;;
41456;SDS011;27197;51.752;5.220;2022-12-07T05:08:01;3.83;;;1.10;;
41456;SDS011;27197;51.752;5.220;2022-12-07T05:10:33;2.33;;;1.15;;
41456;SDS011;27197;51.752;5.220;2022-12-07T05:13:01;2.87;;;1.25;;
41456;SDS011;27197;51.752;5.220;2022-12-07T05:15:34;2.87;;;1.02;;
41456;SDS011;27197;51.752;5.220;2022-12-07T05:18:02;3.55;;;1.07;;
41456;SDS011;27197;51.752;5.220;2022-12-07T05:20:34;2.25;;;1.10;;
41456;SDS011;27197;51.752;5.220;2022-12-07T05:23:03;3.22;;;0.90;;
41456;SDS011;27197;51.752;5.220;2022-12-07T05:25:35;2.08;;;0.88;;
41456;SDS011;27197;51.752;5.220;2022-12-07T05:28:02;3.72;;;1.35;;
41456;SDS011;27197;51.752;5.220;2022-12-07T05:30:35;2.15;;;0.98;;
41456;SDS011;27197;51.752;5.220;2022-12-07T05:33:05;3.83;;;1.20;;
41456;SDS011;27197;51.752;5.220;2022-12-07T05:35:37;2.98;;;1.17;;
41456;SDS011;27197;51.752;5.220;2022-12-07T05:38:06;2.08;;;1.00;;
41456;SDS011;27197;51.752;5.220;2022-12-07T05:40:39;2.62;;;1.00;;
41456;SDS011;27197;51.752;5.220;2022-12-07T05:43:08;4.22;;;1.17;;
41456;SDS011;27197;51.752;5.220;2022-12-07T05:45:38;2.10;;;0.80;;
41456;SDS011;27197;51.752;5.220;2022-12-07T05:48:08;2.72;;;0.90;;
41456;SDS011;27197;51.752;5.220;2022-12-07T05:50:40;3.27;;;1.22;;
41456;SDS011;27197;51.752;5.220;2022-12-07T05:53:11;2.35;;;0.70;;
41456;SDS011;27197;51.752;5.220;2022-12-07T05:55:43;1.98;;;0.98;;
41456;SDS011;27197;51.752;5.220;2022-12-07T05:58:12;2.15;;;0.90;;
41456;SDS011;27197;51.752;5.220;2022-12-07T06:00:59;2.02;;;0.80;;
41456;SDS011;27197;51.752;5.220;2022-12-07T06:03:28;4.25;;;1.32;;
41456;SDS011;27197;51.752;5.220;2022-12-07T06:06:00;2.98;;;1.22;;
41456;SDS011;27197;51.752;5.220;2022-12-07T06:08:30;1.62;;;0.90;;
41456;SDS011;27197;51.752;5.220;2022-12-07T06:10:59;2.33;;;0.90;;
41456;SDS011;27197;51.752;5.220;2022-12-07T06:13:47;2.80;;;0.85;;
41456;SDS011;27197;51.752;5.220;2022-12-07T06:16:15;2.70;;;0.82;;
41456;SDS011;27197;51.752;5.220;2022-12-07T06:18:47;2.50;;;0.95;;
41456;SDS011;27197;51.752;5.220;2022-12-07T06:21:17;1.72;;;0.93;;
41456;SDS011;27197;51.752;5.220;2022-12-07T06:23:49;3.37;;;1.12;;
41456;SDS011;27197;51.752;5.220;2022-12-07T06:26:21;1.60;;;0.78;;
41456;SDS011;27197;51.752;5.220;2022-12-07T06:28:53;2.22;;;1.12;;
41456;SDS011;27197;51.752;5.220;2022-12-07T06:31:22;1.30;;;0.65;;
41456;SDS011;27197;51.752;5.220;2022-12-07T06:33:51;3.20;;;0.80;;
41456;SDS011;27197;51.752;5.220;2022-12-07T06:36:25;3.72;;;0.90;;
41456;SDS011;27197;51.752;5.220;2022-12-07T06:38:53;3.35;;;0.95;;
41456;SDS011;27197;51.752;5.220;2022-12-07T06:41:26;4.75;;;1.10;;
41456;SDS011;27197;51.752;5.220;2022-12-07T06:43:56;10.90;;;1.80;;
41456;SDS011;27197;51.752;5.220;2022-12-07T06:46:28;6.22;;;1.40;;
41456;SDS011;27197;51.752;5.220;2022-12-07T06:48:56;6.87;;;1.40;;
41456;SDS011;27197;51.752;5.220;2022-12-07T06:51:28;5.78;;;1.30;;
41456;SDS011;27197;51.752;5.220;2022-12-07T06:53:58;9.38;;;1.52;;
41456;SDS011;27197;51.752;5.220;2022-12-07T06:58:57;6.50;;;1.40;;
41456;SDS011;27197;51.752;5.220;2022-12-07T07:01:26;5.62;;;1.00;;
41456;SDS011;27197;51.752;5.220;2022-12-07T07:03:58;5.95;;;1.27;;
41456;SDS011;27197;51.752;5.220;2022-12-07T07:06:28;5.30;;;1.40;;
41456;SDS011;27197;51.752;5.220;2022-12-07T07:08:57;4.37;;;1.05;;
41456;SDS011;27197;51.752;5.220;2022-12-07T07:11:30;2.65;;;0.98;;
41456;SDS011;27197;51.752;5.220;2022-12-07T07:13:58;3.92;;;0.88;;
41456;SDS011;27197;51.752;5.220;2022-12-07T07:16:31;6.20;;;1.85;;
41456;SDS011;27197;51.752;5.220;2022-12-07T07:19:00;3.87;;;0.98;;
41456;SDS011;27197;51.752;5.220;2022-12-07T07:21:32;3.10;;;0.88;;
41456;SDS011;27197;51.752;5.220;2022-12-07T07:24:01;1.52;;;0.75;;
41456;SDS011;27197;51.752;5.220;2022-12-07T07:26:33;4.15;;;1.40;;
41456;SDS011;27197;51.752;5.220;2022-12-07T07:29:02;2.20;;;0.82;;
41456;SDS011;27197;51.752;5.220;2022-12-07T07:31:35;2.83;;;0.80;;
41456;SDS011;27197;51.752;5.220;2022-12-07T07:34:06;3.55;;;1.05;;
41456;SDS011;27197;51.752;5.220;2022-12-07T07:36:37;4.85;;;0.95;;
41456;SDS011;27197;51.752;5.220;2022-12-07T07:39:06;1.90;;;0.78;;
41456;SDS011;27197;51.752;5.220;2022-12-07T07:41:38;3.22;;;0.90;;
41456;SDS011;27197;51.752;5.220;2022-12-07T07:44:06;5.10;;;1.07;;
41456;SDS011;27197;51.752;5.220;2022-12-07T07:46:38;3.00;;;1.05;;
41456;SDS011;27197;51.752;5.220;2022-12-07T07:49:09;2.90;;;1.05;;
41456;SDS011;27197;51.752;5.220;2022-12-07T07:51:39;2.70;;;0.75;;
41456;SDS011;27197;51.752;5.220;2022-12-07T07:54:08;7.33;;;2.40;;
41456;SDS011;27197;51.752;5.220;2022-12-07T07:56:40;3.17;;;0.95;;
41456;SDS011;27197;51.752;5.220;2022-12-07T07:59:09;4.42;;;0.90;;
41456;SDS011;27197;51.752;5.220;2022-12-07T08:01:39;3.87;;;0.90;;
41456;SDS011;27197;51.752;5.220;2022-12-07T08:04:09;3.42;;;0.70;;
41456;SDS011;27197;51.752;5.220;2022-12-07T08:06:42;3.10;;;0.78;;
41456;SDS011;27197;51.752;5.220;2022-12-07T08:09:11;2.70;;;0.90;;
41456;SDS011;27197;51.752;5.220;2022-12-07T08:11:43;5.05;;;1.32;;
41456;SDS011;27197;51.752;5.220;2022-12-07T08:14:11;4.50;;;1.25;;
41456;SDS011;27197;51.752;5.220;2022-12-07T08:16:43;2.37;;;0.75;;
41456;SDS011;27197;51.752;5.220;2022-12-07T08:19:13;4.12;;;0.95;;
41456;SDS011;27197;51.752;5.220;2022-12-07T08:21:45;3.10;;;1.12;;
41456;SDS011;27197;51.752;5.220;2022-12-07T08:24:13;2.08;;;0.93;;
41456;SDS011;27197;51.752;5.220;2022-12-07T08:26:42;2.70;;;1.00;;
41456;SDS011;27197;51.752;5.220;2022-12-07T08:29:15;1.90;;;0.95;;
41456;SDS011;27197;51.752;5.220;2022-12-07T08:31:45;3.17;;;1.02;;
41456;SDS011;27197;51.752;5.220;2022-12-07T08:34:17;3.05;;;0.90;;
41456;SDS011;27197;51.752;5.220;2022-12-07T08:36:47;3.65;;;0.90;;
41456;SDS011;27197;51.752;5.220;2022-12-07T08:39:17;2.98;;;0.90;;
41456;SDS011;27197;51.752;5.220;2022-12-07T08:41:46;3.10;;;1.00;;
41456;SDS011;27197;51.752;5.220;2022-12-07T08:44:19;1.62;;;0.90;;
41456;SDS011;27197;51.752;5.220;2022-12-07T08:46:50;3.58;;;1.10;;
41456;SDS011;27197;51.752;5.220;2022-12-07T08:49:24;2.25;;;0.90;;
41456;SDS011;27197;51.752;5.220;2022-12-07T08:51:53;5.15;;;1.27;;
41456;SDS011;27197;51.752;5.220;2022-12-07T08:54:22;2.42;;;1.00;;
41456;SDS011;27197;51.752;5.220;2022-12-07T08:56:55;3.65;;;0.80;;
41456;SDS011;27197;51.752;5.220;2022-12-07T08:59:23;3.47;;;1.02;;
41456;SDS011;27197;51.752;5.220;2022-12-07T09:01:58;3.92;;;1.17;;
41456;SDS011;27197;51.752;5.220;2022-12-07T09:04:26;2.58;;;0.90;;
41456;SDS011;27197;51.752;5.220;2022-12-07T09:06:57;2.02;;;1.02;;
41456;SDS011;27197;51.752;5.220;2022-12-07T09:09:30;2.72;;;1.02;;
41456;SDS011;27197;51.752;5.220;2022-12-07T09:12:00;2.05;;;1.00;;
41456;SDS011;27197;51.752;5.220;2022-12-07T09:14:34;2.83;;;0.93;;
41456;SDS011;27197;51.752;5.220;2022-12-07T09:17:08;1.90;;;0.93;;
41456;SDS011;27197;51.752;5.220;2022-12-07T09:19:38;4.65;;;1.10;;
41456;SDS011;27197;51.752;5.220;2022-12-07T09:22:08;2.17;;;0.75;;
41456;SDS011;27197;51.752;5.220;2022-12-07T09:24:44;3.15;;;1.30;;
41456;SDS011;27197;51.752;5.220;2022-12-07T09:27:11;4.08;;;1.10;;
41456;SDS011;27197;51.752;5.220;2022-12-07T09:29:47;3.95;;;1.12;;
41456;SDS011;27197;51.752;5.220;2022-12-07T09:32:15;2.70;;;1.32;;
41456;SDS011;27197;51.752;5.220;2022-12-07T09:34:49;2.52;;;0.90;;
41456;SDS011;27197;51.752;5.220;2022-12-07T09:37:19;2.37;;;1.17;;
41456;SDS011;27197;51.752;5.220;2022-12-07T09:39:51;2.60;;;1.35;;
41456;SDS011;27197;51.752;5.220;2022-12-07T09:42:32;2.65;;;0.90;;
41456;SDS011;27197;51.752;5.220;2022-12-07T09:45:00;1.98;;;1.00;;
41456;SDS011;27197;51.752;5.220;2022-12-07T09:47:30;3.52;;;1.00;;
41456;SDS011;27197;51.752;5.220;2022-12-07T09:50:04;1.75;;;1.00;;
41456;SDS011;27197;51.752;5.220;2022-12-07T09:52:35;4.62;;;1.32;;
41456;SDS011;27197;51.752;5.220;2022-12-07T09:55:10;2.80;;;1.00;;
41456;SDS011;27197;51.752;5.220;2022-12-07T09:57:36;2.50;;;1.10;;
41456;SDS011;27197;51.752;5.220;2022-12-07T10:00:10;3.55;;;1.52;;
41456;SDS011;27197;51.752;5.220;2022-12-07T10:02:36;3.20;;;0.93;;
41456;SDS011;27197;51.752;5.220;2022-12-07T10:05:07;3.17;;;1.17;;
41456;SDS011;27197;51.752;5.220;2022-12-07T10:07:36;3.45;;;1.00;;
41456;SDS011;27197;51.752;5.220;2022-12-07T10:10:26;2.83;;;0.82;;
41456;SDS011;27197;51.752;5.220;2022-12-07T10:15:16;1.95;;;0.93;;
41456;SDS011;27197;51.752;5.220;2022-12-07T10:17:51;4.12;;;1.02;;
41456;SDS011;27197;51.752;5.220;2022-12-07T10:20:25;2.37;;;1.02;;
41456;SDS011;27197;51.752;5.220;2022-12-07T10:25:33;3.95;;;1.20;;
41456;SDS011;27197;51.752;5.220;2022-12-07T10:30:49;5.12;;;1.07;;
41456;SDS011;27197;51.752;5.220;2022-12-07T10:33:44;3.47;;;1.15;;
41456;SDS011;27197;51.752;5.220;2022-12-07T10:35:50;2.65;;;1.10;;
41456;SDS011;27197;51.752;5.220;2022-12-07T10:38:20;3.02;;;0.90;;
41456;SDS011;27197;51.752;5.220;2022-12-07T10:43:20;2.85;;;0.90;;
41456;SDS011;27197;51.752;5.220;2022-12-07T10:51:20;3.00;;;1.02;;
41456;SDS011;27197;51.752;5.220;2022-12-07T11:01:52;3.37;;;1.10;;
41456;SDS011;27197;51.752;5.220;2022-12-07T11:04:24;1.98;;;1.25;;
41456;SDS011;27197;51.752;5.220;2022-12-07T11:07:06;3.90;;;1.30;;
41456;SDS011;27197;51.752;5.220;2022-12-07T11:09:36;2.05;;;0.68;;
41456;SDS011;27197;51.752;5.220;2022-12-07T11:14:50;3.50;;;1.25;;
41456;SDS011;27197;51.752;5.220;2022-12-07T11:17:18;3.05;;;1.30;;
41456;SDS011;27197;51.752;5.220;2022-12-07T11:20:02;2.92;;;1.10;;
41456;SDS011;27197;51.752;5.220;2022-12-07T11:22:43;2.05;;;0.82;;
41456;SDS011;27197;51.752;5.220;2022-12-07T11:27:47;2.98;;;0.90;;
41456;SDS011;27197;51.752;5.220;2022-12-07T11:30:21;3.08;;;1.17;;
41456;SDS011;27197;51.752;5.220;2022-12-07T11:38:18;3.75;;;0.88;;
41456;SDS011;27197;51.752;5.220;2022-12-07T11:40:47;2.17;;;1.07;;
41456;SDS011;27197;51.752;5.220;2022-12-07T11:43:30;2.75;;;1.35;;
41456;SDS011;27197;51.752;5.220;2022-12-07T11:46:06;3.85;;;0.88;;
41456;SDS011;27197;51.752;5.220;2022-12-07T11:48:57;2.70;;;1.10;;
41456;SDS011;27197;51.752;5.220;2022-12-07T11:51:09;2.72;;;1.02;;
41456;SDS011;27197;51.752;5.220;2022-12-07T11:56:28;3.72;;;1.00;;
41456;SDS011;27197;51.752;5.220;2022-12-07T11:59:04;2.80;;;0.90;;
41456;SDS011;27197;51.752;5.220;2022-12-07T12:04:22;1.82;;;0.75;;
41456;SDS011;27197;51.752;5.220;2022-12-07T12:06:45;2.25;;;1.22;;
41456;SDS011;27197;51.752;5.220;2022-12-07T12:22:40;1.30;;;0.78;;
41456;SDS011;27197;51.752;5.220;2022-12-07T12:27:58;2.15;;;0.70;;
41456;SDS011;27197;51.752;5.220;2022-12-07T12:30:32;5.62;;;1.42;;
41456;SDS011;27197;51.752;5.220;2022-12-07T12:33:16;2.70;;;0.93;;
41456;SDS011;27197;51.752;5.220;2022-12-07T12:35:46;1.72;;;0.95;;
41456;SDS011;27197;51.752;5.220;2022-12-07T12:38:29;6.60;;;1.55;;
41456;SDS011;27197;51.752;5.220;2022-12-07T12:40:54;4.33;;;1.10;;
41456;SDS011;27197;51.752;5.220;2022-12-07T12:49:42;4.05;;;1.20;;
41456;SDS011;27197;51.752;5.220;2022-12-07T12:51:38;2.77;;;0.88;;
41456;SDS011;27197;51.752;5.220;2022-12-07T12:54:14;2.95;;;1.20;;
41456;SDS011;27197;51.752;5.220;2022-12-07T12:56:40;2.08;;;0.80;;
41456;SDS011;27197;51.752;5.220;2022-12-07T13:01:48;2.83;;;1.23;;
41456;SDS011;27197;51.752;5.220;2022-12-07T13:04:30;2.95;;;0.80;;
41456;SDS011;27197;51.752;5.220;2022-12-07T13:07:03;3.27;;;0.70;;
41456;SDS011;27197;51.752;5.220;2022-12-07T13:09:33;3.77;;;1.10;;
41456;SDS011;27197;51.752;5.220;2022-12-07T13:12:10;6.08;;;1.02;;
41456;SDS011;27197;51.752;5.220;2022-12-07T13:14:41;4.28;;;1.52;;
41456;SDS011;27197;51.752;5.220;2022-12-07T13:17:11;3.77;;;1.20;;
41456;SDS011;27197;51.752;5.220;2022-12-07T13:25:12;10.48;;;1.20;;
41456;SDS011;27197;51.752;5.220;2022-12-07T13:27:41;3.58;;;0.93;;
41456;SDS011;27197;51.752;5.220;2022-12-07T13:30:18;3.87;;;0.88;;
41456;SDS011;27197;51.752;5.220;2022-12-07T13:32:56;3.45;;;1.10;;
41456;SDS011;27197;51.752;5.220;2022-12-07T13:35:33;6.35;;;1.10;;
41456;SDS011;27197;51.752;5.220;2022-12-07T13:41:12;7.63;;;1.73;;
41456;SDS011;27197;51.752;5.220;2022-12-07T13:43:45;5.17;;;0.93;;
41456;SDS011;27197;51.752;5.220;2022-12-07T13:46:09;8.13;;;1.60;;
41456;SDS011;27197;51.752;5.220;2022-12-07T13:48:49;6.97;;;1.60;;
41456;SDS011;27197;51.752;5.220;2022-12-07T13:51:18;2.58;;;1.00;;
41456;SDS011;27197;51.752;5.220;2022-12-07T13:53:49;6.87;;;1.55;;
41456;SDS011;27197;51.752;5.220;2022-12-07T13:56:20;8.18;;;1.32;;
41456;SDS011;27197;51.752;5.220;2022-12-07T13:58:54;7.03;;;1.72;;
41456;SDS011;27197;51.752;5.220;2022-12-07T14:01:24;7.08;;;1.30;;
41456;SDS011;27197;51.752;5.220;2022-12-07T14:03:56;7.65;;;1.80;;
41456;SDS011;27197;51.752;5.220;2022-12-07T14:06:25;8.90;;;2.92;;
41456;SDS011;27197;51.752;5.220;2022-12-07T14:09:08;13.18;;;2.33;;
41456;SDS011;27197;51.752;5.220;2022-12-07T14:11:38;2.95;;;1.00;;
41456;SDS011;27197;51.752;5.220;2022-12-07T14:14:14;1.45;;;0.60;;
41456;SDS011;27197;51.752;5.220;2022-12-07T14:16:43;1.65;;;0.60;;
41456;SDS011;27197;51.752;5.220;2022-12-07T14:22:15;1.60;;;0.60;;
41456;SDS011;27197;51.752;5.220;2022-12-07T14:24:42;6.62;;;1.45;;
41456;SDS011;27197;51.752;5.220;2022-12-07T14:27:18;4.80;;;1.05;;
41456;SDS011;27197;51.752;5.220;2022-12-07T14:29:46;2.77;;;0.57;;
41456;SDS011;27197;51.752;5.220;2022-12-07T14:32:26;4.83;;;1.30;;
41456;SDS011;27197;51.752;5.220;2022-12-07T14:34:56;5.00;;;1.10;;
41456;SDS011;27197;51.752;5.220;2022-12-07T14:37:28;4.35;;;0.80;;
41456;SDS011;27197;51.752;5.220;2022-12-07T14:39:56;4.53;;;0.82;;
41456;SDS011;27197;51.752;5.220;2022-12-07T14:42:24;3.87;;;0.95;;
41456;SDS011;27197;51.752;5.220;2022-12-07T14:44:56;4.72;;;0.98;;
41456;SDS011;27197;51.752;5.220;2022-12-07T14:47:24;3.52;;;0.80;;
41456;SDS011;27197;51.752;5.220;2022-12-07T14:49:53;3.98;;;1.00;;
41456;SDS011;27197;51.752;5.220;2022-12-07T14:52:29;4.85;;;1.50;;
41456;SDS011;27197;51.752;5.220;2022-12-07T14:54:56;8.68;;;1.85;;
41456;SDS011;27197;51.752;5.220;2022-12-07T14:57:31;4.10;;;1.10;;
41456;SDS011;27197;51.752;5.220;2022-12-07T15:00:01;3.98;;;1.10;;
41456;SDS011;27197;51.752;5.220;2022-12-07T15:02:31;3.58;;;1.37;;
41456;SDS011;27197;51.752;5.220;2022-12-07T15:05:02;3.33;;;0.90;;
41456;SDS011;27197;51.752;5.220;2022-12-07T15:07:32;3.77;;;1.27;;
41456;SDS011;27197;51.752;5.220;2022-12-07T15:10:02;3.47;;;0.88;;
41456;SDS011;27197;51.752;5.220;2022-12-07T15:12:31;1.60;;;0.65;;
41456;SDS011;27197;51.752;5.220;2022-12-07T15:15:00;3.02;;;1.10;;
41456;SDS011;27197;51.752;5.220;2022-12-07T15:17:32;2.45;;;1.10;;
41456;SDS011;27197;51.752;5.220;2022-12-07T15:20:01;4.05;;;1.02;;
41456;SDS011;27197;51.752;5.220;2022-12-07T15:22:34;2.62;;;0.88;;
41456;SDS011;27197;51.752;5.220;2022-12-07T15:25:02;5.65;;;1.22;;
41456;SDS011;27197;51.752;5.220;2022-12-07T15:27:33;2.10;;;0.78;;
41456;SDS011;27197;51.752;5.220;2022-12-07T15:30:03;3.80;;;0.90;;
41456;SDS011;27197;51.752;5.220;2022-12-07T15:32:35;1.85;;;0.70;;
41456;SDS011;27197;51.752;5.220;2022-12-07T15:35:03;2.20;;;0.75;;
41456;SDS011;27197;51.752;5.220;2022-12-07T15:37:33;4.67;;;1.00;;
41456;SDS011;27197;51.752;5.220;2022-12-07T15:40:04;4.30;;;0.93;;
41456;SDS011;27197;51.752;5.220;2022-12-07T15:42:38;2.52;;;0.82;;
41456;SDS011;27197;51.752;5.220;2022-12-07T15:45:08;2.47;;;0.62;;
41456;SDS011;27197;51.752;5.220;2022-12-07T15:47:41;1.50;;;0.60;;
41456;SDS011;27197;51.752;5.220;2022-12-07T15:50:10;3.17;;;1.02;;
41456;SDS011;27197;51.752;5.220;2022-12-07T15:52:45;4.03;;;0.80;;
41456;SDS011;27197;51.752;5.220;2022-12-07T15:55:17;4.22;;;0.60;;
41456;SDS011;27197;51.752;5.220;2022-12-07T15:57:50;2.08;;;0.70;;
41456;SDS011;27197;51.752;5.220;2022-12-07T16:00:21;2.25;;;0.78;;
41456;SDS011;27197;51.752;5.220;2022-12-07T16:02:53;1.95;;;0.98;;
41456;SDS011;27197;51.752;5.220;2022-12-07T16:05:20;6.53;;;1.27;;
41456;SDS011;27197;51.752;5.220;2022-12-07T16:07:51;1.37;;;0.72;;
41456;SDS011;27197;51.752;5.220;2022-12-07T16:10:20;2.52;;;0.70;;
41456;SDS011;27197;51.752;5.220;2022-12-07T16:12:52;1.85;;;1.00;;
41456;SDS011;27197;51.752;5.220;2022-12-07T16:15:20;3.22;;;0.80;;
41456;SDS011;27197;51.752;5.220;2022-12-07T16:17:51;1.80;;;0.60;;
41456;SDS011;27197;51.752;5.220;2022-12-07T16:20:22;1.55;;;0.62;;
41456;SDS011;27197;51.752;5.220;2022-12-07T16:22:55;1.82;;;0.80;;
41456;SDS011;27197;51.752;5.220;2022-12-07T16:25:23;8.80;;;2.75;;
41456;SDS011;27197;51.752;5.220;2022-12-07T16:27:53;7.53;;;1.70;;
41456;SDS011;27197;51.752;5.220;2022-12-07T16:30:22;6.25;;;1.20;;
41456;SDS011;27197;51.752;5.220;2022-12-07T16:32:54;5.20;;;1.30;;
41456;SDS011;27197;51.752;5.220;2022-12-07T16:35:24;3.62;;;1.10;;
41456;SDS011;27197;51.752;5.220;2022-12-07T16:37:55;3.52;;;1.50;;
41456;SDS011;27197;51.752;5.220;2022-12-07T16:40:27;2.67;;;1.02;;
41456;SDS011;27197;51.752;5.220;2022-12-07T16:42:59;4.00;;;0.95;;
41456;SDS011;27197;51.752;5.220;2022-12-07T16:45:29;6.35;;;1.20;;
41456;SDS011;27197;51.752;5.220;2022-12-07T16:47:58;2.15;;;1.00;;
41456;SDS011;27197;51.752;5.220;2022-12-07T16:50:26;2.20;;;1.00;;
41456;SDS011;27197;51.752;5.220;2022-12-07T16:52:58;1.87;;;0.80;;
41456;SDS011;27197;51.752;5.220;2022-12-07T16:55:28;2.72;;;0.72;;
41456;SDS011;27197;51.752;5.220;2022-12-07T16:58:00;3.05;;;0.90;;